LVMEP SCFA-SCSE
Flight info
| Callsign | LVMEP |
|---|---|
| Flight time | N/A |
| Altitude | 19000 |
| Route | SACON4 SACON L300 SEBTO DCT TIMDA TIMDA5 |
| Aircraft | BE60/L-SDFGRY/C |
Departure
| Time | N/A |
|---|---|
| Airport | Andrés Sabella Gálvez International Airport (SCFA) |
Arrival
| Time | 2026-04-22 19:35 |
|---|---|
| Airport | La Florida Airport (SCSE) |
| Time | Latitude | Longitude | Altitude | Speed | Heading |
|---|---|---|---|---|---|
| 2026-04-22 19:15 | -29.34261 | -71.37322 | 19121 ft | 205 kts | 182° |
| 2026-04-22 19:16 | -29.35692 | -71.37234 | 19118 ft | 211 kts | 181° |
| 2026-04-22 19:16 | -29.37174 | -71.37103 | 19118 ft | 216 kts | 180° |
| 2026-04-22 19:16 | -29.38694 | -71.36956 | 18999 ft | 226 kts | 180° |
| 2026-04-22 19:16 | -29.40298 | -71.36807 | 18797 ft | 236 kts | 179° |
| 2026-04-22 19:17 | -29.41964 | -71.36653 | 18545 ft | 244 kts | 179° |
| 2026-04-22 19:17 | -29.43673 | -71.36494 | 18282 ft | 249 kts | 179° |
| 2026-04-22 19:17 | -29.45418 | -71.36332 | 18002 ft | 253 kts | 179° |
| 2026-04-22 19:17 | -29.47182 | -71.36168 | 17729 ft | 255 kts | 179° |
| 2026-04-22 19:18 | -29.48960 | -71.36004 | 17466 ft | 257 kts | 178° |
| 2026-04-22 19:18 | -29.50746 | -71.35782 | 17198 ft | 259 kts | 175° |
| 2026-04-22 19:18 | -29.52533 | -71.35475 | 16942 ft | 259 kts | 174° |
| 2026-04-22 19:18 | -29.54318 | -71.35160 | 16683 ft | 260 kts | 174° |
| 2026-04-22 19:19 | -29.56103 | -71.34848 | 16435 ft | 260 kts | 174° |
| 2026-04-22 19:19 | -29.57891 | -71.34541 | 16185 ft | 259 kts | 174° |
| 2026-04-22 19:19 | -29.59673 | -71.34240 | 15941 ft | 259 kts | 174° |
| 2026-04-22 19:19 | -29.61457 | -71.33944 | 15697 ft | 258 kts | 174° |
| 2026-04-22 19:20 | -29.63236 | -71.33654 | 15460 ft | 258 kts | 174° |
| 2026-04-22 19:20 | -29.65010 | -71.33372 | 15223 ft | 258 kts | 174° |
| 2026-04-22 19:20 | -29.66768 | -71.33098 | 14993 ft | 257 kts | 174° |
| 2026-04-22 19:20 | -29.68541 | -71.32829 | 14760 ft | 257 kts | 174° |
| 2026-04-22 19:21 | -29.70312 | -71.32564 | 14535 ft | 256 kts | 174° |
| 2026-04-22 19:21 | -29.72081 | -71.32306 | 14332 ft | 256 kts | 173° |
| 2026-04-22 19:21 | -29.73796 | -71.31801 | 14135 ft | 256 kts | 151° |
| 2026-04-22 19:21 | -29.75089 | -71.30442 | 13914 ft | 251 kts | 118° |
| 2026-04-22 19:22 | -29.75601 | -71.28581 | 13674 ft | 242 kts | 91° |
| 2026-04-22 19:22 | -29.75708 | -71.26656 | 13435 ft | 241 kts | 91° |
| 2026-04-22 19:22 | -29.75969 | -71.24746 | 13189 ft | 242 kts | 99° |
| 2026-04-22 19:22 | -29.76561 | -71.22940 | 12953 ft | 246 kts | 114° |
| 2026-04-22 19:23 | -29.77427 | -71.21247 | 12743 ft | 246 kts | 116° |
| 2026-04-22 19:23 | -29.78270 | -71.19538 | 12551 ft | 244 kts | 115° |
| 2026-04-22 19:23 | -29.79105 | -71.17840 | 12345 ft | 244 kts | 116° |
| 2026-04-22 19:23 | -29.79956 | -71.16150 | 12071 ft | 245 kts | 116° |
| 2026-04-22 19:24 | -29.80814 | -71.14451 | 11733 ft | 246 kts | 116° |
| 2026-04-22 19:24 | -29.81674 | -71.12744 | 11423 ft | 247 kts | 116° |
| 2026-04-22 19:24 | -29.82529 | -71.11028 | 11088 ft | 247 kts | 116° |
| 2026-04-22 19:24 | -29.83386 | -71.09321 | 10808 ft | 245 kts | 116° |
| 2026-04-22 19:25 | -29.84238 | -71.07628 | 10505 ft | 244 kts | 116° |
| 2026-04-22 19:25 | -29.85084 | -71.05936 | 10204 ft | 244 kts | 116° |
| 2026-04-22 19:25 | -29.85936 | -71.04244 | 9921 ft | 243 kts | 115° |
| 2026-04-22 19:25 | -29.86776 | -71.02556 | 9648 ft | 242 kts | 116° |
| 2026-04-22 19:26 | -29.87614 | -71.00880 | 9332 ft | 241 kts | 116° |
| 2026-04-22 19:26 | -29.88450 | -70.99209 | 9068 ft | 240 kts | 116° |
| 2026-04-22 19:26 | -29.89273 | -70.97570 | 8707 ft | 239 kts | 117° |
| 2026-04-22 19:26 | -29.90100 | -70.95918 | 8410 ft | 236 kts | 117° |
| 2026-04-22 19:27 | -29.90915 | -70.94290 | 8204 ft | 233 kts | 117° |
| 2026-04-22 19:27 | -29.91714 | -70.92683 | 7949 ft | 230 kts | 117° |
| 2026-04-22 19:27 | -29.92511 | -70.91086 | 7714 ft | 229 kts | 118° |
| 2026-04-22 19:27 | -29.93505 | -70.89660 | 7519 ft | 229 kts | 138° |
| 2026-04-22 19:28 | -29.94840 | -70.88721 | 7486 ft | 221 kts | 158° |
| 2026-04-22 19:28 | -29.96304 | -70.88327 | 7492 ft | 213 kts | 176° |
| 2026-04-22 19:28 | -29.97770 | -70.88469 | 7485 ft | 211 kts | 196° |
| 2026-04-22 19:28 | -29.99100 | -70.89086 | 7486 ft | 203 kts | 210° |
| 2026-04-22 19:29 | -30.00363 | -70.89810 | 7458 ft | 202 kts | 208° |
| 2026-04-22 19:29 | -30.01490 | -70.90731 | 7277 ft | 199 kts | 230° |
| 2026-04-22 19:29 | -30.02227 | -70.92086 | 7009 ft | 202 kts | 251° |
| 2026-04-22 19:29 | -30.02479 | -70.93682 | 6736 ft | 204 kts | 271° |
| 2026-04-22 19:30 | -30.02356 | -70.94753 | 6579 ft | 205 kts | 285° |
| 2026-04-22 19:30 | -30.01569 | -70.96776 | 5988 ft | 210 kts | 297° |
| 2026-04-22 19:30 | -30.00918 | -70.98284 | 5478 ft | 214 kts | 296° |
| 2026-04-22 19:30 | -30.00259 | -70.99840 | 4958 ft | 217 kts | 296° |
| 2026-04-22 19:31 | -29.99587 | -71.01404 | 4413 ft | 217 kts | 296° |
| 2026-04-22 19:31 | -29.98920 | -71.02962 | 3857 ft | 216 kts | 295° |
| 2026-04-22 19:31 | -29.98265 | -71.04513 | 3495 ft | 211 kts | 295° |
| 2026-04-22 19:31 | -29.97634 | -71.05992 | 3248 ft | 200 kts | 295° |
| 2026-04-22 19:32 | -29.97036 | -71.07391 | 2979 ft | 190 kts | 295° |
| 2026-04-22 19:32 | -29.96456 | -71.08733 | 2705 ft | 183 kts | 296° |
| 2026-04-22 19:32 | -29.95902 | -71.10025 | 2435 ft | 178 kts | 295° |
| 2026-04-22 19:32 | -29.95368 | -71.11299 | 2157 ft | 172 kts | 294° |
| 2026-04-22 19:33 | -29.94874 | -71.12435 | 1900 ft | 144 kts | 296° |
| 2026-04-22 19:33 | -29.94465 | -71.13363 | 1731 ft | 118 kts | 294° |
| 2026-04-22 19:33 | -29.94115 | -71.14184 | 1536 ft | 110 kts | 294° |
| 2026-04-22 19:33 | -29.93785 | -71.14957 | 1381 ft | 109 kts | 294° |
| 2026-04-22 19:34 | -29.93449 | -71.15745 | 1219 ft | 110 kts | 294° |
| 2026-04-22 19:34 | -29.93115 | -71.16533 | 1028 ft | 107 kts | 295° |
| 2026-04-22 19:34 | -29.92789 | -71.17275 | 841 ft | 103 kts | 295° |
| 2026-04-22 19:34 | -29.92482 | -71.18007 | 700 ft | 100 kts | 295° |
| 2026-04-22 19:35 | -29.92175 | -71.18724 | 578 ft | 98 kts | 296° |
| 2026-04-22 19:35 | -29.91892 | -71.19376 | 478 ft | 77 kts | 296° |
| 2026-04-22 19:35 | -29.91757 | -71.19686 | 472 ft | 56 kts | 296° |
| 2026-04-22 19:35 | -29.91594 | -71.20081 | 472 ft | 20 kts | 272° |
| 2026-04-22 19:36 | -29.91640 | -71.20141 | 474 ft | 8 kts | 208° |
| 2026-04-22 19:36 | -29.91676 | -71.20170 | 474 ft | 6 kts | 259° |
| 2026-04-22 19:36 | -29.91707 | -71.20207 | 474 ft | 10 kts | 200° |
| 2026-04-22 19:36 | -29.91721 | -71.20214 | 474 ft | 0 kts | 206° |